Tampa, Florida
Current Conditions -  °F | °C
As of 10:53 AM on Friday 21 Nov 2014 (Local Time) from KTPA Reporting Station
Broken Clouds Broken Clouds  
Wind Chill: 66°   Ceiling: 10000
Heat Index: 66°   Visibility: 10mi
Dew Point: 43°   Wind: 13mph
Humidity: 43%   Direction: 40°NE
Pressure: 30.28"   Gusts: 21mph
Location:  27.95°N, 82.46°W
Report Text: KTPA 211553Z 04011G18KT 10SM BKN100 19/06 A3028 RMK AO2 SLP252 T01890061
Loading
Personal Weather Stations






























Interactive Weather Map New forecast layout! Learn more

10-Day Weather Forecast

Advertisements
Track Severe Weather on mobile